»·PEaware :: SWA1534 KSAN-KSFO

SWA1534 :: KSAN-KSFO

FLIGHT INFORMATION

Flight Status: Arrived
Operator:
Southwest Airlines
More flights by this operator :: More flights under this callsign
Pilot: Cody B. (17747)
Aircraft: BOEING 737-800
(B738)
More flights by this aircraft type
Origin: KSAN San Diego Intl-Lindbergh
United States
Destination: KSFO San Francisco Intl
United States
More flights between these airports :: More routes between these airports
Route: PADRZ2 IKAYE RIZIN SPLNT STOKD SERFR SERFR3
File this flight plan on PilotEdge
Remarks:
Altitude:
(Current/Filed)
36,000ft
Speed:
(Current/Filed)
452kts
Departed: 04-May-18 11:55 AM
Arrived: 04-May-18 01:04 PM
Distance/Time
Traveled:
388nm/1:09
Distance/Time
To Go:
Arrived

Flight Plot

Page will automatically refresh every two minutes.

Flight plan parsing failed; only flown route is shown


Map Options




Map Legend


Flown Route
Filed Route
Departure Airport
Arrival Airport
Navaid (VOR, NDB)
Fix

Horizontal Profiles

Position Reports

Time Latitude Longitude Heading Altitude Ground
Speed
04-May-18 11:15 32.733128 -117.196756 138 18ft 0kts
04-May-18 11:16 32.733128 -117.196756 138 18ft 0kts
04-May-18 11:17 32.733128 -117.196756 138 18ft 0kts
04-May-18 11:18 32.733128 -117.196756 138 18ft 0kts
04-May-18 11:19 32.733128 -117.196756 138 18ft 0kts
04-May-18 11:20 32.733128 -117.196756 138 18ft 0kts
04-May-18 11:21 32.733128 -117.196756 138 18ft 0kts
04-May-18 11:23 32.733128 -117.196756 138 18ft 0kts
04-May-18 11:24 32.733128 -117.196756 138 18ft 0kts
04-May-18 11:25 32.733128 -117.196756 138 18ft 0kts
04-May-18 11:26 32.733128 -117.196756 138 18ft 0kts
04-May-18 11:27 32.733128 -117.196756 138 18ft 0kts
04-May-18 11:28 32.733128 -117.196756 138 18ft 0kts
04-May-18 11:29 32.733128 -117.196756 138 18ft 0kts
04-May-18 11:30 32.733128 -117.196756 138 18ft 0kts
04-May-18 11:31 32.733128 -117.196756 138 18ft 0kts
04-May-18 11:32 32.733128 -117.196756 138 18ft 0kts
04-May-18 11:33 32.733245 -117.197194 42 18ft 2kts
04-May-18 11:34 32.733118 -117.197267 17 18ft 0kts
04-May-18 11:35 32.733118 -117.197267 17 18ft 0kts
04-May-18 11:36 32.733118 -117.197267 17 18ft 0kts
04-May-18 11:37 32.733628 -117.197065 13 17ft 0kts
04-May-18 11:38 32.733629 -117.197065 13 17ft 0kts
04-May-18 11:39 32.733629 -117.197065 13 17ft 0kts
04-May-18 11:40 32.733629 -117.197065 13 17ft 0kts
04-May-18 11:41 32.733644 -117.197061 12 17ft 0kts
04-May-18 11:42 32.733644 -117.197061 12 17ft 0kts
04-May-18 11:43 32.733644 -117.197061 12 17ft 0kts
04-May-18 11:44 32.733649 -117.197060 12 17ft 0kts
04-May-18 11:45 32.734086 -117.196095 102 19ft 6kts
04-May-18 11:46 32.733324 -117.192940 106 21ft 14kts
04-May-18 11:47 32.732303 -117.188725 106 19ft 9kts
04-May-18 11:48 32.731349 -117.184760 105 17ft 15kts
04-May-18 11:49 32.730096 -117.179647 106 18ft 17kts
04-May-18 11:50 32.729534 -117.176681 70 23ft 0kts
04-May-18 11:51 32.729534 -117.176681 70 23ft 0kts
04-May-18 11:52 32.729534 -117.176681 70 23ft 0kts
04-May-18 11:53 32.729534 -117.176681 70 23ft 0kts
04-May-18 11:54 32.729831 -117.175907 35 24ft 6kts
04-May-18 11:55 32.732011 -117.183398 287 18ft 113kts
04-May-18 11:56 32.744847 -117.234612 303 2882ft 171kts
04-May-18 11:57 32.778351 -117.286502 311 5081ft 249kts
04-May-18 11:58 32.824868 -117.356477 306 8368ft 288kts
04-May-18 11:59 32.875847 -117.435694 308 11375ft 327kts
04-May-18 12:00 32.931870 -117.522907 308 14878ft 340kts
04-May-18 12:01 32.989965 -117.612826 309 15340ft 348kts
04-May-18 12:02 33.047668 -117.702988 307 18619ft 352kts
04-May-18 12:03 33.117843 -117.783066 319 21297ft 361kts
04-May-18 12:04 33.195168 -117.861819 319 23169ft 379kts
04-May-18 12:05 33.269662 -117.949281 314 23173ft 369kts
04-May-18 12:06 33.341973 -118.036410 314 23246ft 370kts
04-May-18 12:07 33.413952 -118.123312 315 23251ft 369kts
04-May-18 12:08 33.486149 -118.210172 315 23251ft 373kts
04-May-18 12:09 33.559626 -118.298881 314 25501ft 380kts
04-May-18 12:10 33.634820 -118.389652 314 27383ft 390kts
04-May-18 12:11 33.712084 -118.483205 314 29084ft 400kts
04-May-18 12:12 33.790044 -118.577839 314 31055ft 397kts
04-May-18 12:13 33.864876 -118.668922 313 32806ft 393kts
04-May-18 12:14 33.941082 -118.761984 313 34394ft 389kts
04-May-18 12:15 34.016324 -118.854089 313 35770ft 386kts
04-May-18 12:16 34.092649 -118.947669 313 36227ft 406kts
04-May-18 12:17 34.166718 -119.050902 302 36219ft 427kts
04-May-18 12:18 34.228508 -119.172995 301 36207ft 426kts
04-May-18 12:19 34.290394 -119.294549 301 36206ft 426kts
04-May-18 12:20 34.352355 -119.415689 301 36209ft 425kts
04-May-18 12:21 34.414957 -119.537202 303 36339ft 425kts
04-May-18 12:22 34.495895 -119.641879 315 36353ft 427kts
04-May-18 12:23 34.578451 -119.742225 313 36212ft 425kts
04-May-18 12:24 34.661063 -119.843785 313 36215ft 425kts
04-May-18 12:25 34.744160 -119.946070 313 36206ft 425kts
04-May-18 12:26 34.826877 -120.048283 313 36209ft 425kts
04-May-18 12:27 34.909540 -120.150630 313 36235ft 425kts
04-May-18 12:28 34.992324 -120.253249 313 36235ft 425kts
04-May-18 12:29 35.074654 -120.355394 314 36238ft 424kts
04-May-18 12:30 35.158502 -120.451606 316 36231ft 425kts
04-May-18 12:31 35.245297 -120.548901 316 36218ft 424kts
04-May-18 12:32 35.332148 -120.646502 316 36218ft 424kts
04-May-18 12:33 35.417563 -120.742682 316 36223ft 425kts
04-May-18 12:34 35.505593 -120.838562 321 36252ft 424kts
04-May-18 12:35 35.599120 -120.925576 321 36249ft 424kts
04-May-18 12:36 35.693059 -121.012933 321 36243ft 424kts
04-May-18 12:36 35.771068 -121.085602 321 36242ft 424kts
04-May-18 12:37 35.864903 -121.173237 321 36250ft 423kts
04-May-18 12:38 35.957595 -121.259889 321 33863ft 422kts
04-May-18 12:39 36.051163 -121.347349 321 31485ft 431kts
04-May-18 12:40 36.144778 -121.424011 326 28976ft 416kts
04-May-18 12:41 36.237743 -121.496571 326 26626ft 398kts
04-May-18 12:42 36.329462 -121.568401 326 24241ft 384kts
04-May-18 12:43 36.418013 -121.637904 327 21876ft 373kts
04-May-18 12:44 36.504063 -121.705694 326 20192ft 369kts
04-May-18 12:45 36.588911 -121.772666 326 18076ft 356kts
04-May-18 12:46 36.671117 -121.837925 326 15913ft 350kts
04-May-18 12:47 36.752955 -121.898696 342 13992ft 338kts
04-May-18 12:48 36.845225 -121.924908 347 12068ft 340kts
04-May-18 12:49 36.931617 -121.948540 346 10331ft 300kts
04-May-18 12:50 37.008546 -121.975654 342 9617ft 292kts
04-May-18 12:51 37.083944 -122.005021 342 9130ft 279kts
04-May-18 12:52 37.157154 -122.033466 342 8690ft 281kts
04-May-18 12:53 37.231512 -122.062552 341 8251ft 278kts
04-May-18 12:54 37.305078 -122.091515 341 7360ft 273kts
04-May-18 12:55 37.371860 -122.117097 340 6053ft 250kts
04-May-18 12:56 37.433670 -122.138810 342 4920ft 229kts
04-May-18 12:57 37.493996 -122.159448 342 3760ft 210kts
04-May-18 12:58 37.542118 -122.190255 296 2728ft 190kts
04-May-18 12:59 37.564097 -122.245009 298 2017ft 158kts
04-May-18 13:00 37.581981 -122.287685 297 1239ft 124kts
04-May-18 13:01 37.598194 -122.326185 297 600ft 124kts
04-May-18 13:02 37.614397 -122.364508 297 12ft 117kts
04-May-18 13:03 37.618965 -122.377792 266 26ft 8kts
04-May-18 13:04 37.618951 -122.378112 267 27ft 0kts
04-May-18 13:05 37.618298 -122.379496 193 30ft 6kts
04-May-18 13:06 37.615051 -122.380665 207 31ft 15kts
04-May-18 13:07 37.613203 -122.381894 207 31ft 5kts
04-May-18 13:08 37.612696 -122.382865 296 31ft 3kts
04-May-18 13:09 37.612821 -122.383165 301 31ft 0kts
04-May-18 13:10 37.612821 -122.383165 300 31ft 0kts
04-May-18 13:11 37.612821 -122.383165 300 31ft 0kts
04-May-18 13:12 37.612821 -122.383165 300 31ft 0kts
04-May-18 13:13 37.612821 -122.383165 300 31ft 0kts
04-May-18 13:14 37.612821 -122.383165 300 31ft 0kts
04-May-18 13:15 37.612821 -122.383165 300 31ft 0kts
04-May-18 13:16 37.612821 -122.383165 300 31ft 0kts
04-May-18 13:17 37.612821 -122.383165 300 31ft 0kts
04-May-18 13:18 37.612821 -122.383165 300 31ft 0kts

Navigation Log

Ident Type
Flight plan parsing failed, navigation log unavailable